Main page

Airports :

Podgorica, Montenegro

Podgorica Airport

latitude: 42-26N, longitude: 019-17E, elevation: 53 m

Current weather observation

The report was made 34 minutes ago, at 15:30 UTC
Wind 1 kt from variable directions
Temperature 19°C
Humidity 78%
Pressure 1015 hPa
Visibility 10 km or more
Few clouds at a height of 2400 ft

METAR: LYPG 221530Z VRB01KT 9999 FEW024 19/15 Q1015 NOSIG

Time: 18:04 (16:04 UTC)


The report was made 5 hours and 4 minutes ago, at 11:00 UTC
Forecast valid from 22 at 12 UTC to 23 at 12 UTC
Wind 5 kt from the South
Visibility 10 km or more
Few clouds at a height of 1500 ft
Scattered clouds at a height of 3000 ft

TAF: LYPG 221100Z 2212/2312 17005KT 9999 FEW015 SCT030 TX21/2213Z TN09/2305Z


Weather observations and forecasts of more than 4000 airports (METAR and TAF reports).

The available stations are represented by yellow and red dots on the map.

Hover mouse over dot to see the name of the station.

Then click to see weather observations and forecasts.

To change the map : click on the green buttons with a black cross to zoom in, on the green button with a dash to zoom out, or on the green arrows for adjacent maps.